Погода Сан Лоренсона неделю

Минас-Жерайс, Бразилия

15 - 21 июля
  • 15июля
    Сегодня
    +11°
    +25°
    Облачно с прояснениями
    ВремяПогодаТемператураВлажностьДавлениеВетер, м/сВероятность осадков
    00:00Ясно и безоблачно+13°C78 %690 мм1.8 м/с4 %
    03:00Ясно и безоблачно+10°C84 %689 мм1.8 м/с4 %
    06:00Ясно и безоблачно+9°C77 %689 мм0.9 м/с5 %
    09:00Ясно и безоблачно+13°C62 %692 мм0.3 м/с4 %
    12:00Ясно и безоблачно+21°C46 %692 мм0.9 м/с3 %
    15:00Облачно с прояснениями+24°C43 %692 мм0.7 м/с10 %
    18:00Облачно с прояснениями+19°C63 %692 мм1.6 м/с10 %
    21:00Ясно и безоблачно+17°C84 %692 мм0.6 м/с5 %
  • 16июля
    Вторник
    +9°
    +25°
    Пасмурно, сплошная облачность
    ВремяПогодаТемператураВлажностьДавлениеВетер, м/сВероятность осадков
    00:00Практически безоблачно+13°C93 %692 мм1.5 м/с4 %
    03:00Облачно с прояснениями+13°C99 %691 мм1.3 м/с3 %
    06:00Облачно с прояснениями+11°C99 %691 мм0.8 м/с4 %
    09:00Облачно с прояснениями+14°C83 %693 мм0.4 м/с4 %
    12:00Облачно с прояснениями+22°C54 %693 мм1.3 м/с2 %
    15:00Пасмурно, сплошная облачность+25°C47 %692 мм0.9 м/с15 %
    18:00Небольшая облачность+20°C67 %692 мм1.5 м/с20 %
    21:00Ясно и безоблачно+17°C81 %693 мм0.7 м/с13 %
  • 17июля
    Среда
    +9°
    +24°
    Облачно с прояснениями
    ВремяПогодаТемператураВлажностьДавлениеВетер, м/сВероятность осадков
    00:00Ясно и безоблачно+13°C88 %692 мм0.9 м/с4 %
    03:00Ясно и безоблачно+12°C88 %691 мм0.6 м/с5 %
    06:00Ясно и безоблачно+10°C91 %691 мм1.1 м/с5 %
    09:00Ясно и безоблачно+14°C74 %693 мм0.3 м/с5 %
    12:00Практически безоблачно+21°C52 %693 мм0.9 м/с3 %
    15:00Облачно с прояснениями+24°C43 %691 мм0.8 м/с11 %
    18:00Небольшая облачность+20°C63 %690 мм1.3 м/с25 %
    21:00Ясно и безоблачно+18°C78 %691 мм0.5 м/с19 %
  • 18июля
    Четверг
    +8°
    +26°
    Ясно и безоблачно
    ВремяПогодаТемператураВлажностьДавлениеВетер, м/сВероятность осадков
    00:00Ясно и безоблачно+13°C84 %690 мм0.2 м/с5 %
    03:00Ясно и безоблачно+10°C90 %688 мм1.3 м/с5 %
    06:00Ясно и безоблачно+9°C85 %689 мм1.6 м/с5 %
    09:00Ясно и безоблачно+14°C68 %691 мм0.3 м/с5 %
    12:00Практически безоблачно+22°C49 %692 мм1.0 м/с5 %
    15:00Ясно и безоблачно+26°C45 %691 мм0.7 м/с5 %
    18:00Ясно и безоблачно+20°C64 %690 мм1.1 м/с5 %
    21:00Ясно и безоблачно+18°C70 %691 мм0.6 м/с5 %
  • 19июля
    Пятница
    +9°
    +25°
    Ясно и безоблачно
    ВремяПогодаТемператураВлажностьДавлениеВетер, м/сВероятность осадков
    00:00Ясно и безоблачно+13°C83 %691 мм0.3 м/с5 %
    03:00Ясно и безоблачно+11°C88 %690 мм0.5 м/с5 %
    06:00Ясно и безоблачно+9°C90 %690 мм0.9 м/с5 %
    09:00Ясно и безоблачно+13°C72 %692 мм0.3 м/с5 %
    12:00Ясно и безоблачно+21°C51 %693 мм0.7 м/с5 %
    15:00Ясно и безоблачно+25°C46 %692 мм0.6 м/с5 %
    18:00Ясно и безоблачно+20°C68 %692 мм1.5 м/с5 %
    21:00Ясно и безоблачно+17°C76 %692 мм0.5 м/с5 %
Мы используем cookies
Соглашаюсь